^^
Saratoga-Weather Station Historical Data
Daily Summary for October 3, 2020 Units:  Both    English   Metric
Daily Weekly Monthly Yearly Custom
  High: Low: Average:
Temperature: 56.5 °F /  13.6 °C 50 °F /  10 °C 52.2 °F /  11.2 °C
Dew Point: 55 °F /  12.8 °C 48.2 °F /  9 °C 50 °F /  10 °C
Humidity: 95% 83% 93%
Wind Speed: 8.1mph /  13km/h - 1.7mph /  2.7km/h
Wind Gust: 13mph /  20.9km/h - -
Wind- - SSE
Pressure: 29.3 in /  992.5 hPa 29.1 in /  986.5 hPa -
Precipitation: 0.37 in /  9.4 mm    
Historical Graphs
 
 
Tabular Data for October 3, 2020
Time Temperature Dew Point Pressure Wind Wind Speed Wind Gust Humidity Rainfall Rate (Hourly) solar
00:02 56.3 °F /  13.5 °C 54.9 °F /  12.7 °C 29.2in /  987.8hPa NW 4mph /  6.4km/h 5mph /  8km/h 95% 0in /  0.0mm 0 W/m2
00:07 56.5 °F /  13.6 °C 55 °F /  12.8 °C 29.2in /  987.5hPa WNW 8.1mph /  13km/h 8mph /  12.9km/h 95% 0in /  0.0mm 0 W/m2
00:12 56.5 °F /  13.6 °C 55 °F /  12.8 °C 29.2in /  987.5hPa NNW 2.9mph /  4.7km/h 6mph /  9.7km/h 95% 0in /  0.0mm 0 W/m2
00:17 56.3 °F /  13.5 °C 54.9 °F /  12.7 °C 29.2in /  987.5hPa WNW 6mph /  9.7km/h 9mph /  14.5km/h 95% 0in /  0.0mm 0 W/m2
00:22 56.3 °F /  13.5 °C 54.9 °F /  12.7 °C 29.2in /  987.1hPa West 6mph /  9.7km/h 8mph /  12.9km/h 95% 0in /  0.0mm 0 W/m2
00:27 56.1 °F /  13.4 °C 54.5 °F /  12.5 °C 29.2in /  987.1hPa NW 4.9mph /  7.9km/h 9mph /  14.5km/h 94% 0in /  0.0mm 0 W/m2
00:32 56.1 °F /  13.4 °C 54.5 °F /  12.5 °C 29.1in /  986.8hPa NNW 4mph /  6.4km/h 7mph /  11.3km/h 94% 0in /  0.0mm 0 W/m2
00:37 55.9 °F /  13.3 °C 54.3 °F /  12.4 °C 29.1in /  986.8hPa WNW 6.9mph /  11.1km/h 7mph /  11.3km/h 94% 0in /  0.0mm 0 W/m2
00:42 55.9 °F /  13.3 °C 54.3 °F /  12.4 °C 29.1in /  986.8hPa West 4mph /  6.4km/h 7mph /  11.3km/h 94% 0in /  0.0mm 0 W/m2
00:47 55.8 °F /  13.2 °C 54.1 °F /  12.3 °C 29.1in /  986.8hPa WNW 4.9mph /  7.9km/h 8mph /  12.9km/h 94% 0in /  0.0mm 0 W/m2
00:52 55.8 °F /  13.2 °C 54.1 °F /  12.3 °C 29.2in /  987.1hPa WNW 4mph /  6.4km/h 11mph /  17.7km/h 94% 0in /  0.0mm 0 W/m2
00:57 55.6 °F /  13.1 °C 54.1 °F /  12.3 °C 29.2in /  987.1hPa West 6.9mph /  11.1km/h 8mph /  12.9km/h 95% 0in /  0.0mm 0 W/m2
01:02 55.6 °F /  13.1 °C 54 °F /  12.2 °C 29.2in /  987.1hPa WNW 6.9mph /  11.1km/h 7mph /  11.3km/h 94% 0in /  0.0mm 0 W/m2
01:07 55.4 °F /  13 °C 53.8 °F /  12.1 °C 29.1in /  986.8hPa West 6.9mph /  11.1km/h 7mph /  11.3km/h 94% 0in /  0.0mm 0 W/m2
01:12 55.2 °F /  12.9 °C 53.6 °F /  12 °C 29.1in /  986.5hPa WSW 2.9mph /  4.7km/h 6mph /  9.7km/h 94% 0in /  0.0mm 0 W/m2
01:17 55 °F /  12.8 °C 53.4 °F /  11.9 °C 29.1in /  986.5hPa WNW 2mph /  3.2km/h 3mph /  4.8km/h 94% 0in /  0.0mm 0 W/m2
01:22 55 °F /  12.8 °C 53.4 °F /  11.9 °C 29.1in /  986.5hPa WNW 0.9mph /  1.4km/h 2mph /  3.2km/h 94% 0in /  0.0mm 0 W/m2
01:27 54.9 °F /  12.7 °C 53.2 °F /  11.8 °C 29.1in /  986.8hPa WNW 0.9mph /  1.4km/h 2mph /  3.2km/h 94% 0in /  0.0mm 0 W/m2
01:32 54.7 °F /  12.6 °C 53.1 °F /  11.7 °C 29.2in /  987.1hPa Calm   1mph /  1.6km/h 94% 0in /  0.0mm 0 W/m2
01:37 54.5 °F /  12.5 °C 53.1 °F /  11.7 °C 29.2in /  987.1hPa Calm   2mph /  3.2km/h 95% 0in /  0.0mm 0 W/m2
01:42 54.3 °F /  12.4 °C 52.9 °F /  11.6 °C 29.1in /  986.8hPa NW 2.9mph /  4.7km/h 4mph /  6.4km/h 95% 0in /  0.0mm 0 W/m2
01:47 54.3 °F /  12.4 °C 52.9 °F /  11.6 °C 29.1in /  986.5hPa NW 0.9mph /  1.4km/h 2mph /  3.2km/h 95% 0in /  0.0mm 0 W/m2
01:52 54.3 °F /  12.4 °C 52.7 °F /  11.5 °C 29.1in /  986.5hPa NW 0.9mph /  1.4km/h 2mph /  3.2km/h 94% 0in /  0.0mm 0 W/m2
01:57 54.1 °F /  12.3 °C 52.5 °F /  11.4 °C 29.2in /  987.5hPa WNW 2.9mph /  4.7km/h 6mph /  9.7km/h 94% 0in /  0.0mm 0 W/m2
02:02 54.1 °F /  12.3 °C 52.5 °F /  11.4 °C 29.2in /  987.8hPa West 0.9mph /  1.4km/h 6mph /  9.7km/h 94% 0in /  0.0mm 0 W/m2
02:07 54 °F /  12.2 °C 52.3 °F /  11.3 °C 29.2in /  987.8hPa NNW 2.9mph /  4.7km/h 7mph /  11.3km/h 94% 0in /  0.0mm 0 W/m2
02:13 54 °F /  12.2 °C 52.3 °F /  11.3 °C 29.2in /  987.8hPa NW 6.9mph /  11.1km/h 8mph /  12.9km/h 94% 0in /  0.0mm 0 W/m2
02:18 53.8 °F /  12.1 °C 52.2 °F /  11.2 °C 29.2in /  987.8hPa NW 2.9mph /  4.7km/h 4mph /  6.4km/h 94% 0in /  0.0mm 0 W/m2
02:23 53.8 °F /  12.1 °C 52.2 °F /  11.2 °C 29.2in /  988.1hPa North 0.9mph /  1.4km/h 9mph /  14.5km/h 94% 0in /  0.0mm 0 W/m2
02:28 53.6 °F /  12 °C 52 °F /  11.1 °C 29.2in /  987.8hPa NNE 4mph /  6.4km/h 4mph /  6.4km/h 94% 0in /  0.0mm 0 W/m2
02:33 53.4 °F /  11.9 °C 51.8 °F /  11 °C 29.2in /  987.5hPa West 2.9mph /  4.7km/h 9mph /  14.5km/h 94% 0in /  0.0mm 0 W/m2
02:38 53.4 °F /  11.9 °C 51.8 °F /  11 °C 29.2in /  987.8hPa WSW 2.9mph /  4.7km/h 8mph /  12.9km/h 94% 0in /  0.0mm 0 W/m2
02:43 53.2 °F /  11.8 °C 51.3 °F /  10.7 °C 29.2in /  988.1hPa West 2mph /  3.2km/h 5mph /  8km/h 93% 0in /  0.0mm 0 W/m2
02:48 53.2 °F /  11.8 °C 51.3 °F /  10.7 °C 29.2in /  988.1hPa SSW 2.9mph /  4.7km/h 7mph /  11.3km/h 93% 0in /  0.0mm 0 W/m2
02:53 53.2 °F /  11.8 °C 51.3 °F /  10.7 °C 29.2in /  988.1hPa WNW 4mph /  6.4km/h 8mph /  12.9km/h 93% 0in /  0.0mm 0 W/m2
02:58 53.2 °F /  11.8 °C 51.3 °F /  10.7 °C 29.2in /  988.1hPa WSW 4mph /  6.4km/h 10mph /  16.1km/h 93% 0in /  0.0mm 0 W/m2
03:03 53.2 °F /  11.8 °C 51.3 °F /  10.7 °C 29.2in /  988.5hPa NW 4mph /  6.4km/h 7mph /  11.3km/h 93% 0in /  0.0mm 0 W/m2
03:08 53.2 °F /  11.8 °C 51.3 °F /  10.7 °C 29.2in /  988.5hPa WNW 0.9mph /  1.4km/h 10mph /  16.1km/h 93% 0in /  0.0mm 0 W/m2
03:13 53.2 °F /  11.8 °C 51.3 °F /  10.7 °C 29.2in /  988.5hPa Calm   6mph /  9.7km/h 93% 0in /  0.0mm 0 W/m2
03:18 53.1 °F /  11.7 °C 51.4 °F /  10.8 °C 29.2in /  988.8hPa Calm   1mph /  1.6km/h 94% 0in /  0.0mm 0 W/m2
03:23 53.1 °F /  11.7 °C 51.4 °F /  10.8 °C 29.2in /  988.5hPa NW 2mph /  3.2km/h 4mph /  6.4km/h 94% 0in /  0.0mm 0 W/m2
03:28 53.1 °F /  11.7 °C 51.4 °F /  10.8 °C 29.2in /  988.5hPa WNW 2.9mph /  4.7km/h 5mph /  8km/h 94% 0in /  0.0mm 0 W/m2
03:33 53.1 °F /  11.7 °C 51.4 °F /  10.8 °C 29.2in /  988.1hPa West 2.9mph /  4.7km/h 4mph /  6.4km/h 94% 0in /  0.0mm 0 W/m2
03:38 53.1 °F /  11.7 °C 51.4 °F /  10.8 °C 29.2in /  988.5hPa SW 0.9mph /  1.4km/h 3mph /  4.8km/h 94% 0in /  0.0mm 0 W/m2
03:43 53.1 °F /  11.7 °C 51.4 °F /  10.8 °C 29.2in /  988.8hPa Calm   4mph /  6.4km/h 94% 0in /  0.0mm 0 W/m2
03:48 53.1 °F /  11.7 °C 51.4 °F /  10.8 °C 29.2in /  989.2hPa SE 2mph /  3.2km/h 3mph /  4.8km/h 94% 0in /  0.0mm 0 W/m2
03:53 53.1 °F /  11.7 °C 51.4 °F /  10.8 °C 29.2in /  989.2hPa Calm     94% 0in /  0.0mm 0 W/m2
03:58 53.1 °F /  11.7 °C 51.4 °F /  10.8 °C 29.2in /  989.2hPa Calm     94% 0in /  0.0mm 0 W/m2
04:03 52.9 °F /  11.6 °C 51.3 °F /  10.7 °C 29.2in /  989.2hPa Calm   2mph /  3.2km/h 94% 0in /  0.0mm 0 W/m2
04:08 52.9 °F /  11.6 °C 51.3 °F /  10.7 °C 29.2in /  988.8hPa Calm   3mph /  4.8km/h 94% 0in /  0.0mm 0 W/m2
04:13 52.9 °F /  11.6 °C 51.3 °F /  10.7 °C 29.2in /  988.8hPa Calm     94% 0.01in /  0.2mm 0 W/m2
04:18 52.9 °F /  11.6 °C 51.3 °F /  10.7 °C 29.2in /  988.8hPa Calm   2mph /  3.2km/h 94% 0.01in /  0.2mm 0 W/m2
04:23 52.7 °F /  11.5 °C 51.1 °F /  10.6 °C 29.2in /  988.8hPa NW 0.9mph /  1.4km/h 1mph /  1.6km/h 94% 0.01in /  0.2mm 0 W/m2
04:28 52.5 °F /  11.4 °C 51.1 °F /  10.6 °C 29.2in /  988.8hPa Calm   1mph /  1.6km/h 95% 0.02in /  0.5mm 0 W/m2
04:33 52.5 °F /  11.4 °C 51.1 °F /  10.6 °C 29.2in /  988.5hPa West 2.9mph /  4.7km/h 3mph /  4.8km/h 95% 0.02in /  0.5mm 0 W/m2
04:38 52.5 °F /  11.4 °C 51.1 °F /  10.6 °C 29.2in /  988.8hPa WNW 2mph /  3.2km/h 2mph /  3.2km/h 95% 0.02in /  0.5mm 0 W/m2
04:43 52.5 °F /  11.4 °C 51.1 °F /  10.6 °C 29.2in /  988.8hPa NW 0.9mph /  1.4km/h 3mph /  4.8km/h 95% 0.02in /  0.5mm 0 W/m2
04:48 52.3 °F /  11.3 °C 50.9 °F /  10.5 °C 29.2in /  988.1hPa NNW 0.9mph /  1.4km/h 1mph /  1.6km/h 95% 0.02in /  0.5mm 0 W/m2
04:53 52.3 °F /  11.3 °C 50.7 °F /  10.4 °C 29.2in /  988.1hPa WNW 2mph /  3.2km/h 7mph /  11.3km/h 94% 0.02in /  0.5mm 0 W/m2
04:58 52.2 °F /  11.2 °C 50.5 °F /  10.3 °C 29.2in /  988.1hPa West 2mph /  3.2km/h 4mph /  6.4km/h 94% 0.02in /  0.5mm 0 W/m2
05:03 52.2 °F /  11.2 °C 50.5 °F /  10.3 °C 29.2in /  988.5hPa WNW 0.9mph /  1.4km/h 7mph /  11.3km/h 94% 0.02in /  0.5mm 0 W/m2
05:08 52 °F /  11.1 °C 50.4 °F /  10.2 °C 29.2in /  988.5hPa Calm   1mph /  1.6km/h 94% 0.02in /  0.5mm 0 W/m2
05:13 52 °F /  11.1 °C 50.4 °F /  10.2 °C 29.2in /  988.5hPa NW 0.9mph /  1.4km/h 2mph /  3.2km/h 94% 0.01in /  0.2mm 0 W/m2
05:18 51.8 °F /  11 °C 50.2 °F /  10.1 °C 29.2in /  988.8hPa North 0.9mph /  1.4km/h 3mph /  4.8km/h 94% 0.01in /  0.2mm 0 W/m2
05:23 51.6 °F /  10.9 °C 50 °F /  10 °C 29.2in /  989.2hPa Calm   1mph /  1.6km/h 94% 0.01in /  0.2mm 0 W/m2
05:28 51.6 °F /  10.9 °C 50 °F /  10 °C 29.2in /  989.2hPa Calm     94% 0in /  0.0mm 0 W/m2
05:33 51.6 °F /  10.9 °C 50 °F /  10 °C 29.2in /  989.5hPa NW 2mph /  3.2km/h 2mph /  3.2km/h 94% 0in /  0.0mm 0 W/m2
05:38 51.4 °F /  10.8 °C 49.8 °F /  9.9 °C 29.2in /  989.5hPa Calm   2mph /  3.2km/h 94% 0in /  0.0mm 0 W/m2
05:43 51.4 °F /  10.8 °C 49.8 °F /  9.9 °C 29.2in /  989.2hPa Calm   2mph /  3.2km/h 94% 0.01in /  0.2mm 0 W/m2
05:48 51.3 °F /  10.7 °C 49.6 °F /  9.8 °C 29.2in /  989.5hPa West 0.9mph /  1.4km/h 8mph /  12.9km/h 94% 0.01in /  0.2mm 0 W/m2
05:53 51.3 °F /  10.7 °C 49.6 °F /  9.8 °C 29.2in /  989.5hPa West 2mph /  3.2km/h 3mph /  4.8km/h 94% 0.01in /  0.2mm 0 W/m2
05:58 51.1 °F /  10.6 °C 49.5 °F /  9.7 °C 29.2in /  989.5hPa NW 2mph /  3.2km/h 8mph /  12.9km/h 94% 0.01in /  0.2mm 0 W/m2
06:03 51.1 °F /  10.6 °C 49.5 °F /  9.7 °C 29.2in /  989.2hPa WNW 2mph /  3.2km/h 3mph /  4.8km/h 94% 0.02in /  0.5mm 0 W/m2
06:08 50.9 °F /  10.5 °C 49.3 °F /  9.6 °C 29.2in /  989.5hPa WNW 0.9mph /  1.4km/h 3mph /  4.8km/h 94% 0.02in /  0.5mm 0 W/m2
06:13 50.7 °F /  10.4 °C 49.1 °F /  9.5 °C 29.2in /  989.2hPa NW 4mph /  6.4km/h 4mph /  6.4km/h 94% 0.02in /  0.5mm 0 W/m2
06:18 50.7 °F /  10.4 °C 49.1 °F /  9.5 °C 29.2in /  989.2hPa West 2mph /  3.2km/h 8mph /  12.9km/h 94% 0.02in /  0.5mm 0 W/m2
06:23 50.5 °F /  10.3 °C 48.9 °F /  9.4 °C 29.2in /  989.2hPa NW 2mph /  3.2km/h 4mph /  6.4km/h 94% 0.03in /  0.8mm 0 W/m2
06:28 50.5 °F /  10.3 °C 48.9 °F /  9.4 °C 29.2in /  989.2hPa West 2.9mph /  4.7km/h 8mph /  12.9km/h 94% 0.03in /  0.8mm 0 W/m2
06:33 50.5 °F /  10.3 °C 48.9 °F /  9.4 °C 29.2in /  988.8hPa NW 2.9mph /  4.7km/h 3mph /  4.8km/h 94% 0.04in /  1.0mm 0 W/m2
06:38 50.5 °F /  10.3 °C 48.9 °F /  9.4 °C 29.2in /  988.8hPa Calm   6mph /  9.7km/h 94% 0.04in /  1.0mm 0 W/m2
06:43 50.4 °F /  10.2 °C 48.7 °F /  9.3 °C 29.2in /  988.5hPa WNW 0.9mph /  1.4km/h 3mph /  4.8km/h 94% 0.03in /  0.8mm 0 W/m2
06:48 50.4 °F /  10.2 °C 48.7 °F /  9.3 °C 29.2in /  988.5hPa WNW 0.9mph /  1.4km/h 6mph /  9.7km/h 94% 0.03in /  0.8mm 0 W/m2
06:53 50.4 °F /  10.2 °C 48.7 °F /  9.3 °C 29.2in /  988.8hPa WSW 0.9mph /  1.4km/h 4mph /  6.4km/h 94% 0.04in /  1.0mm 0 W/m2
06:58 50.2 °F /  10.1 °C 48.6 °F /  9.2 °C 29.2in /  988.8hPa WNW 2mph /  3.2km/h 3mph /  4.8km/h 94% 0.04in /  1.0mm 0 W/m2
07:03 50.2 °F /  10.1 °C 48.7 °F /  9.3 °C 29.2in /  989.2hPa Calm   4mph /  6.4km/h 95% 0.04in /  1.0mm 0 W/m2
07:08 50.2 °F /  10.1 °C 48.7 °F /  9.3 °C 29.2in /  989.2hPa Calm   2mph /  3.2km/h 95% 0.05in /  1.3mm 0 W/m2
07:13 50.2 °F /  10.1 °C 48.7 °F /  9.3 °C 29.2in /  989.2hPa NNE 2mph /  3.2km/h 2mph /  3.2km/h 95% 0.06in /  1.5mm 0 W/m2
07:18 50.2 °F /  10.1 °C 48.7 °F /  9.3 °C 29.2in /  989.2hPa Calm   2mph /  3.2km/h 95% 0.06in /  1.5mm 0 W/m2
07:23 50.2 °F /  10.1 °C 48.7 °F /  9.3 °C 29.2in /  989.2hPa WNW 2mph /  3.2km/h 5mph /  8km/h 95% 0.06in /  1.5mm 0 W/m2
07:28 50.2 °F /  10.1 °C 48.7 °F /  9.3 °C 29.2in /  989.2hPa NW 0.9mph /  1.4km/h 3mph /  4.8km/h 95% 0.07in /  1.8mm 0 W/m2
07:33 50.2 °F /  10.1 °C 48.7 °F /  9.3 °C 29.2in /  989.2hPa Calm   5mph /  8km/h 95% 0.08in /  2.0mm 0 W/m2
07:38 50.2 °F /  10.1 °C 48.7 °F /  9.3 °C 29.2in /  989.2hPa Calm   2mph /  3.2km/h 95% 0.09in /  2.3mm 0 W/m2
07:43 50 °F /  10 °C 48.6 °F /  9.2 °C 29.2in /  989.2hPa ESE 0.9mph /  1.4km/h 3mph /  4.8km/h 95% 0.09in /  2.3mm 7 W/m2
07:48 50 °F /  10 °C 48.6 °F /  9.2 °C 29.2in /  989.5hPa Calm   2mph /  3.2km/h 95% 0.09in /  2.3mm 9 W/m2
07:53 50 °F /  10 °C 48.6 °F /  9.2 °C 29.2in /  989.5hPa North 0.9mph /  1.4km/h 3mph /  4.8km/h 95% 0.09in /  2.3mm 11 W/m2
07:58 50 °F /  10 °C 48.6 °F /  9.2 °C 29.2in /  989.8hPa Calm   2mph /  3.2km/h 95% 0.09in /  2.3mm 11 W/m2
08:03 50 °F /  10 °C 48.6 °F /  9.2 °C 29.2in /  989.8hPa Calm   1mph /  1.6km/h 95% 0.08in /  2.0mm 9 W/m2
08:08 50.2 °F /  10.1 °C 48.7 °F /  9.3 °C 29.2in /  990.2hPa NE 0.9mph /  1.4km/h 2mph /  3.2km/h 95% 0.07in /  1.8mm 9 W/m2
08:13 50.2 °F /  10.1 °C 48.7 °F /  9.3 °C 29.2in /  989.8hPa NNE 2mph /  3.2km/h 2mph /  3.2km/h 95% 0.06in /  1.5mm 14 W/m2
08:18 50.2 °F /  10.1 °C 48.7 °F /  9.3 °C 29.2in /  990.2hPa Calm     95% 0.06in /  1.5mm 18 W/m2
08:23 50.2 °F /  10.1 °C 48.7 °F /  9.3 °C 29.2in /  990.2hPa Calm     95% 0.06in /  1.5mm 14 W/m2
08:28 50.2 °F /  10.1 °C 48.7 °F /  9.3 °C 29.3in /  990.5hPa NNE 2mph /  3.2km/h 2mph /  3.2km/h 95% 0.05in /  1.3mm 12 W/m2
08:33 50.2 °F /  10.1 °C 48.7 °F /  9.3 °C 29.3in /  990.5hPa NNW 0.9mph /  1.4km/h 2mph /  3.2km/h 95% 0.03in /  0.8mm 12 W/m2
08:38 50.4 °F /  10.2 °C 48.9 °F /  9.4 °C 29.3in /  990.5hPa North 0.9mph /  1.4km/h 2mph /  3.2km/h 95% 0.03in /  0.8mm 16 W/m2
08:43 50.4 °F /  10.2 °C 48.9 °F /  9.4 °C 29.3in /  990.5hPa Calm   3mph /  4.8km/h 95% 0.02in /  0.5mm 21 W/m2
08:48 50.4 °F /  10.2 °C 48.9 °F /  9.4 °C 29.3in /  990.5hPa Calm   1mph /  1.6km/h 95% 0.02in /  0.5mm 25 W/m2
08:53 50.4 °F /  10.2 °C 48.9 °F /  9.4 °C 29.2in /  990.2hPa Calm   3mph /  4.8km/h 95% 0.03in /  0.8mm 19 W/m2
08:58 50.4 °F /  10.2 °C 48.9 °F /  9.4 °C 29.3in /  990.5hPa Calm   2mph /  3.2km/h 95% 0.03in /  0.8mm 19 W/m2
09:03 50.2 °F /  10.1 °C 48.7 °F /  9.3 °C 29.3in /  990.9hPa East 0.9mph /  1.4km/h 3mph /  4.8km/h 95% 0.03in /  0.8mm 26 W/m2
09:08 50.4 °F /  10.2 °C 48.9 °F /  9.4 °C 29.3in /  990.9hPa Calm   2mph /  3.2km/h 95% 0.02in /  0.5mm 23 W/m2
09:13 50.4 °F /  10.2 °C 48.9 °F /  9.4 °C 29.3in /  990.9hPa Calm   1mph /  1.6km/h 95% 0.02in /  0.5mm 21 W/m2
09:18 50.4 °F /  10.2 °C 48.9 °F /  9.4 °C 29.3in /  991.2hPa Calm   3mph /  4.8km/h 95% 0.02in /  0.5mm 28 W/m2
09:23 50.4 °F /  10.2 °C 48.9 °F /  9.4 °C 29.3in /  991.2hPa Calm     95% 0.02in /  0.5mm 32 W/m2
09:28 50.4 °F /  10.2 °C 48.9 °F /  9.4 °C 29.3in /  990.9hPa NNE 0.9mph /  1.4km/h 2mph /  3.2km/h 95% 0.02in /  0.5mm 40 W/m2
09:33 50.4 °F /  10.2 °C 48.9 °F /  9.4 °C 29.3in /  991.2hPa Calm   1mph /  1.6km/h 95% 0.02in /  0.5mm 35 W/m2
09:38 50.5 °F /  10.3 °C 49.1 °F /  9.5 °C 29.3in /  991.2hPa NE 2mph /  3.2km/h 2mph /  3.2km/h 95% 0.02in /  0.5mm 35 W/m2
09:43 50.5 °F /  10.3 °C 49.1 °F /  9.5 °C 29.3in /  990.9hPa NE 0.9mph /  1.4km/h 1mph /  1.6km/h 95% 0.02in /  0.5mm 40 W/m2
09:48 50.5 °F /  10.3 °C 49.1 °F /  9.5 °C 29.3in /  990.9hPa Calm   2mph /  3.2km/h 95% 0.03in /  0.8mm 62 W/m2
09:54 50.5 °F /  10.3 °C 49.1 °F /  9.5 °C 29.3in /  990.9hPa Calm     95% 0.02in /  0.5mm 70 W/m2
09:59 50.5 °F /  10.3 °C 49.1 °F /  9.5 °C 29.3in /  991.2hPa NW 0.9mph /  1.4km/h 2mph /  3.2km/h 95% 0.02in /  0.5mm 42 W/m2
10:04 50.5 °F /  10.3 °C 49.1 °F /  9.5 °C 29.3in /  991.5hPa NE 2mph /  3.2km/h 2mph /  3.2km/h 95% 0.02in /  0.5mm 53 W/m2
10:09 50.5 °F /  10.3 °C 49.1 °F /  9.5 °C 29.3in /  991.2hPa NNE 0.9mph /  1.4km/h 3mph /  4.8km/h 95% 0.03in /  0.8mm 84 W/m2
10:14 50.7 °F /  10.4 °C 49.3 °F /  9.6 °C 29.3in /  990.9hPa North 2mph /  3.2km/h 2mph /  3.2km/h 95% 0.03in /  0.8mm 105 W/m2
10:19 50.7 °F /  10.4 °C 49.3 °F /  9.6 °C 29.3in /  991.2hPa Calm   1mph /  1.6km/h 95% 0.03in /  0.8mm 97 W/m2
10:24 50.7 °F /  10.4 °C 49.3 °F /  9.6 °C 29.3in /  991.2hPa Calm   3mph /  4.8km/h 95% 0.02in /  0.5mm 116 W/m2
10:29 51.1 °F /  10.6 °C 49.6 °F /  9.8 °C 29.3in /  991.2hPa Calm   2mph /  3.2km/h 95% 0.02in /  0.5mm 97 W/m2
10:34 51.1 °F /  10.6 °C 49.5 °F /  9.7 °C 29.3in /  991.2hPa WNW 0.9mph /  1.4km/h 3mph /  4.8km/h 94% 0.02in /  0.5mm 95 W/m2
10:39 51.1 °F /  10.6 °C 49.5 °F /  9.7 °C 29.3in /  991.5hPa Calm   3mph /  4.8km/h 94% 0.02in /  0.5mm 79 W/m2
10:44 51.3 °F /  10.7 °C 49.6 °F /  9.8 °C 29.3in /  991.5hPa North 2mph /  3.2km/h 3mph /  4.8km/h 94% 0.02in /  0.5mm 91 W/m2
10:49 51.3 °F /  10.7 °C 49.6 °F /  9.8 °C 29.3in /  991.9hPa ENE 2mph /  3.2km/h 3mph /  4.8km/h 94% 0.01in /  0.2mm 74 W/m2
10:54 51.3 °F /  10.7 °C 49.6 °F /  9.8 °C 29.3in /  992.5hPa NNW 2.9mph /  4.7km/h 4mph /  6.4km/h 94% 0.01in /  0.2mm 62 W/m2
10:59 51.3 °F /  10.7 °C 49.3 °F /  9.6 °C 29.3in /  992.2hPa East 0.9mph /  1.4km/h 5mph /  8km/h 93% 0.01in /  0.2mm 90 W/m2
11:04 51.3 °F /  10.7 °C 49.3 °F /  9.6 °C 29.3in /  992.2hPa NE 2mph /  3.2km/h 3mph /  4.8km/h 93% 0.01in /  0.2mm 86 W/m2
11:09 51.3 °F /  10.7 °C 49.3 °F /  9.6 °C 29.3in /  992.2hPa NNE 0.9mph /  1.4km/h 5mph /  8km/h 93% 0in /  0.0mm 77 W/m2
11:14 51.3 °F /  10.7 °C 49.3 °F /  9.6 °C 29.3in /  991.9hPa North 2mph /  3.2km/h 2mph /  3.2km/h 93% 0in /  0.0mm 74 W/m2
11:19 51.3 °F /  10.7 °C 49.3 °F /  9.6 °C 29.3in /  991.9hPa NE 0.9mph /  1.4km/h 3mph /  4.8km/h 93% 0.01in /  0.2mm 69 W/m2
11:24 51.3 °F /  10.7 °C 49.3 °F /  9.6 °C 29.3in /  992.2hPa Calm   2mph /  3.2km/h 93% 0.01in /  0.2mm 81 W/m2
11:29 51.1 °F /  10.6 °C 49.1 °F /  9.5 °C 29.3in /  991.9hPa Calm   3mph /  4.8km/h 93% 0.01in /  0.2mm 95 W/m2
11:34 51.1 °F /  10.6 °C 48.9 °F /  9.4 °C 29.3in /  991.9hPa NNE 2mph /  3.2km/h 2mph /  3.2km/h 92% 0.01in /  0.2mm 111 W/m2
11:39 50.9 °F /  10.5 °C 48.7 °F /  9.3 °C 29.3in /  991.9hPa ESE 0.9mph /  1.4km/h 3mph /  4.8km/h 92% 0.01in /  0.2mm 125 W/m2
11:44 50.9 °F /  10.5 °C 48.7 °F /  9.3 °C 29.3in /  991.9hPa NE 0.9mph /  1.4km/h 3mph /  4.8km/h 92% 0.01in /  0.2mm 105 W/m2
11:49 50.9 °F /  10.5 °C 48.7 °F /  9.3 °C 29.3in /  991.9hPa ENE 0.9mph /  1.4km/h 5mph /  8km/h 92% 0.01in /  0.2mm 125 W/m2
11:54 50.9 °F /  10.5 °C 48.7 °F /  9.3 °C 29.3in /  991.9hPa Calm   1mph /  1.6km/h 92% 0.01in /  0.2mm 104 W/m2
11:59 50.9 °F /  10.5 °C 48.7 °F /  9.3 °C 29.3in /  991.9hPa North 0.9mph /  1.4km/h 5mph /  8km/h 92% 0.01in /  0.2mm 109 W/m2
12:04 50.9 °F /  10.5 °C 48.7 °F /  9.3 °C 29.3in /  991.5hPa NE 2.9mph /  4.7km/h 4mph /  6.4km/h 92% 0.01in /  0.2mm 132 W/m2
12:09 51.1 °F /  10.6 °C 49.1 °F /  9.5 °C 29.3in /  991.5hPa Calm   4mph /  6.4km/h 93% 0.01in /  0.2mm 120 W/m2
12:14 51.1 °F /  10.6 °C 48.9 °F /  9.4 °C 29.3in /  991.9hPa ENE 0.9mph /  1.4km/h 3mph /  4.8km/h 92% 0.01in /  0.2mm 155 W/m2
12:19 51.1 °F /  10.6 °C 48.9 °F /  9.4 °C 29.3in /  992.2hPa NE 0.9mph /  1.4km/h 4mph /  6.4km/h 92% 0in /  0.0mm 116 W/m2
12:24 51.1 °F /  10.6 °C 48.9 °F /  9.4 °C 29.3in /  992.2hPa East 2mph /  3.2km/h 5mph /  8km/h 92% 0in /  0.0mm 95 W/m2
12:29 50.7 °F /  10.4 °C 48.6 °F /  9.2 °C 29.3in /  992.2hPa Calm   4mph /  6.4km/h 92% 0in /  0.0mm 77 W/m2
12:34 50.7 °F /  10.4 °C 48.6 °F /  9.2 °C 29.3in /  992.5hPa NE 2.9mph /  4.7km/h 4mph /  6.4km/h 92% 0in /  0.0mm 83 W/m2
12:39 50.7 °F /  10.4 °C 48.6 °F /  9.2 °C 29.3in /  992.5hPa NE 2mph /  3.2km/h 5mph /  8km/h 92% 0.01in /  0.2mm 97 W/m2
12:44 50.5 °F /  10.3 °C 48.6 °F /  9.2 °C 29.3in /  992.5hPa East 4.9mph /  7.9km/h 5mph /  8km/h 93% 0.01in /  0.2mm 62 W/m2
12:49 50.5 °F /  10.3 °C 48.6 °F /  9.2 °C 29.3in /  992.5hPa ENE 2mph /  3.2km/h 4mph /  6.4km/h 93% 0.01in /  0.2mm 42 W/m2
12:54 50.5 °F /  10.3 °C 48.6 °F /  9.2 °C 29.3in /  992.5hPa East 0.9mph /  1.4km/h 3mph /  4.8km/h 93% 0.01in /  0.2mm 44 W/m2
12:59 50.4 °F /  10.2 °C 48.4 °F /  9.1 °C 29.3in /  992.2hPa NNE 2mph /  3.2km/h 4mph /  6.4km/h 93% 0.01in /  0.2mm 49 W/m2
13:04 50.4 °F /  10.2 °C 48.4 °F /  9.1 °C 29.3in /  992.2hPa East 0.9mph /  1.4km/h 2mph /  3.2km/h 93% 0.02in /  0.5mm 58 W/m2
13:09 50.2 °F /  10.1 °C 48.2 °F /  9 °C 29.3in /  992.2hPa NE 0.9mph /  1.4km/h 4mph /  6.4km/h 93% 0.02in /  0.5mm 77 W/m2
13:14 50.2 °F /  10.1 °C 48.2 °F /  9 °C 29.3in /  992.2hPa Calm   2mph /  3.2km/h 93% 0.02in /  0.5mm 100 W/m2
13:19 50.2 °F /  10.1 °C 48.2 °F /  9 °C 29.3in /  992.2hPa ESE 2mph /  3.2km/h 3mph /  4.8km/h 93% 0.02in /  0.5mm 107 W/m2
13:24 50.2 °F /  10.1 °C 48.2 °F /  9 °C 29.3in /  992.2hPa ENE 2.9mph /  4.7km/h 7mph /  11.3km/h 93% 0.02in /  0.5mm 142 W/m2
13:29 50.4 °F /  10.2 °C 48.7 °F /  9.3 °C 29.3in /  992.2hPa NE 2.9mph /  4.7km/h 9mph /  14.5km/h 94% 0.02in /  0.5mm 220 W/m2
13:34 50.5 °F /  10.3 °C 48.9 °F /  9.4 °C 29.3in /  991.9hPa ESE 6.9mph /  11.1km/h 9mph /  14.5km/h 94% 0.02in /  0.5mm 237 W/m2
13:39 50.7 °F /  10.4 °C 48.7 °F /  9.3 °C 29.3in /  991.9hPa SSE 2.9mph /  4.7km/h 8mph /  12.9km/h 93% 0.01in /  0.2mm 221 W/m2
13:44 50.7 °F /  10.4 °C 48.7 °F /  9.3 °C 29.3in /  991.9hPa NNE 4mph /  6.4km/h 4mph /  6.4km/h 93% 0.01in /  0.2mm 285 W/m2
13:49 51.1 °F /  10.6 °C 49.1 °F /  9.5 °C 29.3in /  991.9hPa East 6.9mph /  11.1km/h 9mph /  14.5km/h 93% 0.01in /  0.2mm 267 W/m2
13:54 51.3 °F /  10.7 °C 49.3 °F /  9.6 °C 29.3in /  991.9hPa East 0.9mph /  1.4km/h 5mph /  8km/h 93% 0.01in /  0.2mm 267 W/m2
13:59 51.6 °F /  10.9 °C 49.5 °F /  9.7 °C 29.3in /  991.9hPa NE 0.9mph /  1.4km/h 9mph /  14.5km/h 92% 0.01in /  0.2mm 339 W/m2
14:04 51.8 °F /  11 °C 49.6 °F /  9.8 °C 29.3in /  991.5hPa ENE 2.9mph /  4.7km/h 4mph /  6.4km/h 92% 0in /  0.0mm 290 W/m2
14:09 52.3 °F /  11.3 °C 50 °F /  10 °C 29.3in /  991.5hPa East 2.9mph /  4.7km/h 4mph /  6.4km/h 92% 0in /  0.0mm 192 W/m2
14:14 52.3 °F /  11.3 °C 49.8 °F /  9.9 °C 29.3in /  991.5hPa ENE 2mph /  3.2km/h 7mph /  11.3km/h 91% 0in /  0.0mm 329 W/m2
14:19 52.7 °F /  11.5 °C 50.2 °F /  10.1 °C 29.3in /  991.5hPa East 0.9mph /  1.4km/h 10mph /  16.1km/h 91% 0in /  0.0mm 220 W/m2
14:24 52.9 °F /  11.6 °C 50 °F /  10 °C 29.3in /  991.5hPa East 4mph /  6.4km/h 7mph /  11.3km/h 90% 0in /  0.0mm 229 W/m2
14:29 52.9 °F /  11.6 °C 49.6 °F /  9.8 °C 29.3in /  991.5hPa East 0.9mph /  1.4km/h 7mph /  11.3km/h 89% 0in /  0.0mm 121 W/m2
14:34 52.9 °F /  11.6 °C 49.5 °F /  9.7 °C 29.3in /  991.5hPa SE 4mph /  6.4km/h 8mph /  12.9km/h 88% 0in /  0.0mm 167 W/m2
14:39 52.7 °F /  11.5 °C 49.5 °F /  9.7 °C 29.3in /  991.5hPa ENE 0.9mph /  1.4km/h 4mph /  6.4km/h 89% 0in /  0.0mm 139 W/m2
14:44 52.7 °F /  11.5 °C 49.3 °F /  9.6 °C 29.3in /  991.5hPa NE 2.9mph /  4.7km/h 5mph /  8km/h 88% 0in /  0.0mm 246 W/m2
14:49 52.9 °F /  11.6 °C 49.5 °F /  9.7 °C 29.3in /  991.5hPa North 4mph /  6.4km/h 4mph /  6.4km/h 88% 0in /  0.0mm 230 W/m2
14:54 53.1 °F /  11.7 °C 49.6 °F /  9.8 °C 29.3in /  991.2hPa ENE 2.9mph /  4.7km/h 4mph /  6.4km/h 88% 0in /  0.0mm 199 W/m2
14:59 53.2 °F /  11.8 °C 49.5 °F /  9.7 °C 29.3in /  991.2hPa East 2mph /  3.2km/h 6mph /  9.7km/h 87% 0in /  0.0mm 308 W/m2
15:04 53.8 °F /  12.1 °C 49.6 °F /  9.8 °C 29.3in /  991.2hPa ENE 0.9mph /  1.4km/h 7mph /  11.3km/h 86% 0in /  0.0mm 207 W/m2
15:09 54 °F /  12.2 °C 49.6 °F /  9.8 °C 29.3in /  991.2hPa NW 0.9mph /  1.4km/h 4mph /  6.4km/h 85% 0in /  0.0mm 445 W/m2
15:14 54.1 °F /  12.3 °C 49.5 °F /  9.7 °C 29.3in /  991.2hPa Calm   7mph /  11.3km/h 84% 0in /  0.0mm 153 W/m2
15:19 54 °F /  12.2 °C 48.9 °F /  9.4 °C 29.3in /  991.2hPa WNW 2mph /  3.2km/h 3mph /  4.8km/h 83% 0in /  0.0mm 111 W/m2
15:24 54 °F /  12.2 °C 48.9 °F /  9.4 °C 29.3in /  991.2hPa SW 0.9mph /  1.4km/h 6mph /  9.7km/h 83% 0in /  0.0mm 188 W/m2
15:29 54 °F /  12.2 °C 48.9 °F /  9.4 °C 29.3in /  991.2hPa NNW 0.9mph /  1.4km/h 4mph /  6.4km/h 83% 0in /  0.0mm 148 W/m2
15:34 54 °F /  12.2 °C 48.9 °F /  9.4 °C 29.3in /  991.2hPa NW 0.9mph /  1.4km/h 2mph /  3.2km/h 83% 0in /  0.0mm 137 W/m2
15:39 54.1 °F /  12.3 °C 49.1 °F /  9.5 °C 29.3in /  991.2hPa ESE 2mph /  3.2km/h 6mph /  9.7km/h 83% 0in /  0.0mm 123 W/m2
15:44 54.1 °F /  12.3 °C 49.1 °F /  9.5 °C 29.3in /  990.9hPa East 0.9mph /  1.4km/h 3mph /  4.8km/h 83% 0in /  0.0mm 121 W/m2
15:49 54.1 °F /  12.3 °C 49.5 °F /  9.7 °C 29.3in /  990.9hPa ENE 2.9mph /  4.7km/h 6mph /  9.7km/h 84% 0in /  0.0mm 90 W/m2
15:54 54.1 °F /  12.3 °C 49.5 °F /  9.7 °C 29.3in /  990.9hPa East 2.9mph /  4.7km/h 3mph /  4.8km/h 84% 0in /  0.0mm 69 W/m2
15:59 54 °F /  12.2 °C 49.3 °F /  9.6 °C 29.3in /  990.9hPa East 2.9mph /  4.7km/h 3mph /  4.8km/h 84% 0in /  0.0mm 58 W/m2
16:04 53.8 °F /  12.1 °C 49.1 °F /  9.5 °C 29.3in /  990.9hPa Calm   3mph /  4.8km/h 84% 0in /  0.0mm 46 W/m2
16:09 53.8 °F /  12.1 °C 49.5 °F /  9.7 °C 29.3in /  990.9hPa ENE 0.9mph /  1.4km/h 2mph /  3.2km/h 85% 0in /  0.0mm 47 W/m2
16:14 53.8 °F /  12.1 °C 49.6 °F /  9.8 °C 29.3in /  990.5hPa Calm   2mph /  3.2km/h 86% 0in /  0.0mm 67 W/m2
16:19 53.8 °F /  12.1 °C 50 °F /  10 °C 29.3in /  990.5hPa Calm   1mph /  1.6km/h 87% 0in /  0.0mm 62 W/m2
16:24 53.6 °F /  12 °C 49.5 °F /  9.7 °C 29.3in /  990.5hPa Calm     86% 0in /  0.0mm 56 W/m2
16:29 53.4 °F /  11.9 °C 49.6 °F /  9.8 °C 29.3in /  990.5hPa NE 0.9mph /  1.4km/h 2mph /  3.2km/h 87% 0in /  0.0mm 47 W/m2
16:34 53.4 °F /  11.9 °C 49.3 °F /  9.6 °C 29.3in /  990.5hPa East 0.9mph /  1.4km/h 3mph /  4.8km/h 86% 0in /  0.0mm 40 W/m2
16:39 53.4 °F /  11.9 °C 50 °F /  10 °C 29.3in /  990.5hPa NE 0.9mph /  1.4km/h 1mph /  1.6km/h 88% 0in /  0.0mm 37 W/m2
16:44 53.2 °F /  11.8 °C 49.8 °F /  9.9 °C 29.3in /  990.5hPa SSE 2mph /  3.2km/h 4mph /  6.4km/h 88% 0in /  0.0mm 37 W/m2
16:49 53.1 °F /  11.7 °C 49.6 °F /  9.8 °C 29.2in /  990.2hPa Calm   3mph /  4.8km/h 88% 0in /  0.0mm 51 W/m2
16:54 53.1 °F /  11.7 °C 49.6 °F /  9.8 °C 29.3in /  990.5hPa East 0.9mph /  1.4km/h 2mph /  3.2km/h 88% 0in /  0.0mm 47 W/m2
16:59 53.1 °F /  11.7 °C 49.3 °F /  9.6 °C 29.3in /  990.5hPa Calm     87% 0in /  0.0mm 54 W/m2
17:05 53.2 °F /  11.8 °C 49.8 °F /  9.9 °C 29.3in /  990.5hPa Calm   1mph /  1.6km/h 88% 0in /  0.0mm 40 W/m2
17:10 53.2 °F /  11.8 °C 50 °F /  10 °C 29.3in /  990.5hPa Calm     89% 0in /  0.0mm 26 W/m2
17:15 53.1 °F /  11.7 °C 50.2 °F /  10.1 °C 29.3in /  990.5hPa Calm     90% 0in /  0.0mm 19 W/m2
17:20 53.1 °F /  11.7 °C 50.5 °F /  10.3 °C 29.3in /  990.5hPa Calm     91% 0in /  0.0mm 16 W/m2
17:25 52.9 °F /  11.6 °C 50.4 °F /  10.2 °C 29.3in /  990.5hPa Calm     91% 0in /  0.0mm 16 W/m2
17:30 52.5 °F /  11.4 °C 50 °F /  10 °C 29.2in /  990.2hPa Calm   1mph /  1.6km/h 91% 0in /  0.0mm 19 W/m2
17:35 52.5 °F /  11.4 °C 50.2 °F /  10.1 °C 29.2in /  990.2hPa Calm     92% 0in /  0.0mm 14 W/m2
17:40 52.5 °F /  11.4 °C 50.5 °F /  10.3 °C 29.2in /  990.2hPa Calm   1mph /  1.6km/h 93% 0in /  0.0mm 19 W/m2
17:45 52.3 °F /  11.3 °C 50.4 °F /  10.2 °C 29.2in /  990.2hPa Calm     93% 0in /  0.0mm 19 W/m2
17:51 52.3 °F /  11.3 °C 50.4 °F /  10.2 °C 29.2in /  990.2hPa Calm     93% 0in /  0.0mm 19 W/m2
17:56 52.2 °F /  11.2 °C 50.5 °F /  10.3 °C 29.2in /  990.2hPa Calm     94% 0in /  0.0mm 21 W/m2
18:01 52.2 °F /  11.2 °C 50.5 °F /  10.3 °C 29.2in /  990.2hPa Calm     94% 0in /  0.0mm 16 W/m2
18:06 52.2 °F /  11.2 °C 50.5 °F /  10.3 °C 29.2in /  989.8hPa Calm     94% 0in /  0.0mm 12 W/m2
18:11 52.2 °F /  11.2 °C 50.5 °F /  10.3 °C 29.2in /  989.8hPa Calm     94% 0in /  0.0mm 12 W/m2
18:16 52 °F /  11.1 °C 50.4 °F /  10.2 °C 29.2in /  989.8hPa Calm     94% 0in /  0.0mm 12 W/m2
18:21 52 °F /  11.1 °C 50.4 °F /  10.2 °C 29.2in /  989.8hPa Calm     94% 0in /  0.0mm 12 W/m2
18:26 52 °F /  11.1 °C 50.4 °F /  10.2 °C 29.2in /  989.8hPa Calm     94% 0in /  0.0mm 7 W/m2
18:31 51.8 °F /  11 °C 50.2 °F /  10.1 °C 29.2in /  989.8hPa Calm     94% 0in /  0.0mm 5 W/m2
18:36 51.6 °F /  10.9 °C 50 °F /  10 °C 29.2in /  989.8hPa Calm     94% 0in /  0.0mm 0 W/m2
18:41 51.6 °F /  10.9 °C 50 °F /  10 °C 29.2in /  989.5hPa Calm     94% 0in /  0.0mm 0 W/m2
18:46 51.6 °F /  10.9 °C 50.2 °F /  10.1 °C 29.2in /  989.5hPa Calm     95% 0in /  0.0mm 0 W/m2
18:51 51.6 °F /  10.9 °C 50.2 °F /  10.1 °C 29.2in /  989.5hPa Calm     95% 0in /  0.0mm 0 W/m2
18:56 51.6 °F /  10.9 °C 50.2 °F /  10.1 °C 29.2in /  989.5hPa Calm     95% 0in /  0.0mm 0 W/m2
19:01 51.6 °F /  10.9 °C 50.2 °F /  10.1 °C 29.2in /  989.5hPa Calm     95% 0in /  0.0mm 0 W/m2
19:06 51.4 °F /  10.8 °C 50 °F /  10 °C 29.2in /  989.5hPa Calm   1mph /  1.6km/h 95% 0in /  0.0mm 0 W/m2
19:11 51.4 °F /  10.8 °C 50 °F /  10 °C 29.2in /  989.2hPa Calm     95% 0in /  0.0mm 0 W/m2
19:16 51.4 °F /  10.8 °C 50 °F /  10 °C 29.2in /  989.2hPa Calm   1mph /  1.6km/h 95% 0in /  0.0mm 0 W/m2
19:21 51.4 °F /  10.8 °C 50 °F /  10 °C 29.2in /  989.2hPa Calm     95% 0in /  0.0mm 0 W/m2
19:26 51.4 °F /  10.8 °C 50 °F /  10 °C 29.2in /  989.2hPa Calm   1mph /  1.6km/h 95% 0in /  0.0mm 0 W/m2
19:31 51.4 °F /  10.8 °C 50 °F /  10 °C 29.2in /  989.2hPa ENE 0.9mph /  1.4km/h 2mph /  3.2km/h 95% 0in /  0.0mm 0 W/m2
19:36 51.4 °F /  10.8 °C 50 °F /  10 °C 29.2in /  989.2hPa ENE 4mph /  6.4km/h 5mph /  8km/h 95% 0in /  0.0mm 0 W/m2
19:41 52.9 °F /  11.6 °C 50.9 °F /  10.5 °C 29.2in /  989.5hPa ENE 4.9mph /  7.9km/h 10mph /  16.1km/h 93% 0in /  0.0mm 0 W/m2
19:46 54 °F /  12.2 °C 50.5 °F /  10.3 °C 29.2in /  989.5hPa ENE 2.9mph /  4.7km/h 12mph /  19.3km/h 88% 0in /  0.0mm 0 W/m2
19:51 54.1 °F /  12.3 °C 50 °F /  10 °C 29.2in /  989.2hPa SE 2mph /  3.2km/h 12mph /  19.3km/h 86% 0in /  0.0mm 0 W/m2
19:56 54 °F /  12.2 °C 49.8 °F /  9.9 °C 29.2in /  989.5hPa ENE 2.9mph /  4.7km/h 5mph /  8km/h 86% 0.01in /  0.2mm 0 W/m2
20:01 53.8 °F /  12.1 °C 50 °F /  10 °C 29.2in /  989.2hPa ESE 2.9mph /  4.7km/h 6mph /  9.7km/h 87% 0.01in /  0.2mm 0 W/m2
20:06 53.4 °F /  11.9 °C 50 °F /  10 °C 29.2in /  989.2hPa East 2.9mph /  4.7km/h 12mph /  19.3km/h 88% 0.02in /  0.5mm 0 W/m2
20:11 53.2 °F /  11.8 °C 50 °F /  10 °C 29.2in /  989.2hPa ENE 4mph /  6.4km/h 5mph /  8km/h 89% 0.02in /  0.5mm 0 W/m2
20:16 53.1 °F /  11.7 °C 49.8 °F /  9.9 °C 29.2in /  989.2hPa East 6.9mph /  11.1km/h 8mph /  12.9km/h 89% 0.02in /  0.5mm 0 W/m2
20:21 52.9 °F /  11.6 °C 50 °F /  10 °C 29.2in /  989.2hPa East 0.9mph /  1.4km/h 4mph /  6.4km/h 90% 0.03in /  0.8mm 0 W/m2
20:26 52.9 °F /  11.6 °C 50 °F /  10 °C 29.2in /  989.2hPa ESE 2mph /  3.2km/h 3mph /  4.8km/h 90% 0.03in /  0.8mm 0 W/m2
20:31 52.5 °F /  11.4 °C 50 °F /  10 °C 29.2in /  989.2hPa East 2mph /  3.2km/h 3mph /  4.8km/h 91% 0.05in /  1.3mm 0 W/m2
20:36 52.3 °F /  11.3 °C 50 °F /  10 °C 29.2in /  989.2hPa East 2mph /  3.2km/h 7mph /  11.3km/h 92% 0.06in /  1.5mm 0 W/m2
20:41 52.2 °F /  11.2 °C 49.8 °F /  9.9 °C 29.2in /  989.2hPa ENE 2mph /  3.2km/h 5mph /  8km/h 92% 0.07in /  1.8mm 0 W/m2
20:46 52.2 °F /  11.2 °C 50.2 °F /  10.1 °C 29.2in /  989.2hPa SE 4mph /  6.4km/h 6mph /  9.7km/h 93% 0.07in /  1.8mm 0 W/m2
20:51 52 °F /  11.1 °C 50 °F /  10 °C 29.2in /  989.2hPa ENE 0.9mph /  1.4km/h 5mph /  8km/h 93% 0.07in /  1.8mm 0 W/m2
20:56 52 °F /  11.1 °C 50 °F /  10 °C 29.2in /  989.2hPa East 2.9mph /  4.7km/h 9mph /  14.5km/h 93% 0.06in /  1.5mm 0 W/m2
21:01 52 °F /  11.1 °C 50 °F /  10 °C 29.2in /  989.2hPa ESE 2.9mph /  4.7km/h 6mph /  9.7km/h 93% 0.06in /  1.5mm 0 W/m2
21:07 52 °F /  11.1 °C 50 °F /  10 °C 29.2in /  989.2hPa ENE 2mph /  3.2km/h 9mph /  14.5km/h 93% 0.06in /  1.5mm 0 W/m2
21:12 52.2 °F /  11.2 °C 50.2 °F /  10.1 °C 29.2in /  989.2hPa ENE 4.9mph /  7.9km/h 11mph /  17.7km/h 93% 0.05in /  1.3mm 0 W/m2
21:17 52.2 °F /  11.2 °C 50.2 °F /  10.1 °C 29.2in /  989.2hPa NNW 2.9mph /  4.7km/h 5mph /  8km/h 93% 0.05in /  1.3mm 0 W/m2
21:22 52.2 °F /  11.2 °C 50.2 °F /  10.1 °C 29.2in /  988.8hPa East 2.9mph /  4.7km/h 11mph /  17.7km/h 93% 0.04in /  1.0mm 0 W/m2
21:27 52.3 °F /  11.3 °C 50 °F /  10 °C 29.2in /  988.8hPa ENE 2.9mph /  4.7km/h 9mph /  14.5km/h 92% 0.03in /  0.8mm 0 W/m2
21:32 52.3 °F /  11.3 °C 50 °F /  10 °C 29.2in /  988.8hPa NE 2mph /  3.2km/h 11mph /  17.7km/h 92% 0.02in /  0.5mm 0 W/m2
21:37 52.3 °F /  11.3 °C 50 °F /  10 °C 29.2in /  988.8hPa NE 2mph /  3.2km/h 6mph /  9.7km/h 92% 0.01in /  0.2mm 0 W/m2
21:42 52.3 °F /  11.3 °C 50 °F /  10 °C 29.2in /  988.8hPa ESE 2mph /  3.2km/h 9mph /  14.5km/h 92% 0in /  0.0mm 0 W/m2
21:47 52.3 °F /  11.3 °C 50 °F /  10 °C 29.2in /  988.8hPa NE 2mph /  3.2km/h 4mph /  6.4km/h 92% 0in /  0.0mm 0 W/m2
21:52 52.3 °F /  11.3 °C 50 °F /  10 °C 29.2in /  988.8hPa North 0.9mph /  1.4km/h 9mph /  14.5km/h 92% 0in /  0.0mm 0 W/m2
21:57 52.3 °F /  11.3 °C 50 °F /  10 °C 29.2in /  988.8hPa NNW 2mph /  3.2km/h 3mph /  4.8km/h 92% 0in /  0.0mm 0 W/m2
22:02 52.3 °F /  11.3 °C 50 °F /  10 °C 29.2in /  988.8hPa ENE 0.9mph /  1.4km/h 3mph /  4.8km/h 92% 0in /  0.0mm 0 W/m2
22:07 52.2 °F /  11.2 °C 49.8 °F /  9.9 °C 29.2in /  988.5hPa Calm   2mph /  3.2km/h 92% 0in /  0.0mm 0 W/m2
22:12 52.2 °F /  11.2 °C 49.8 °F /  9.9 °C 29.2in /  988.5hPa ENE 4mph /  6.4km/h 4mph /  6.4km/h 92% 0in /  0.0mm 0 W/m2
22:17 52.2 °F /  11.2 °C 49.8 °F /  9.9 °C 29.2in /  988.5hPa Calm   1mph /  1.6km/h 92% 0in /  0.0mm 0 W/m2
22:22 52 °F /  11.1 °C 50 °F /  10 °C 29.2in /  988.5hPa Calm   1mph /  1.6km/h 93% 0in /  0.0mm 0 W/m2
22:27 52 °F /  11.1 °C 50 °F /  10 °C 29.2in /  988.5hPa East 4mph /  6.4km/h 4mph /  6.4km/h 93% 0in /  0.0mm 0 W/m2
22:32 52 °F /  11.1 °C 50 °F /  10 °C 29.2in /  988.5hPa ESE 0.9mph /  1.4km/h 3mph /  4.8km/h 93% 0in /  0.0mm 0 W/m2
22:37 52 °F /  11.1 °C 50 °F /  10 °C 29.2in /  988.5hPa Calm   3mph /  4.8km/h 93% 0in /  0.0mm 0 W/m2
22:42 52 °F /  11.1 °C 50 °F /  10 °C 29.2in /  988.5hPa NNE 2.9mph /  4.7km/h 3mph /  4.8km/h 93% 0in /  0.0mm 0 W/m2
22:47 52 °F /  11.1 °C 50 °F /  10 °C 29.2in /  988.5hPa ENE 6mph /  9.7km/h 8mph /  12.9km/h 93% 0in /  0.0mm 0 W/m2
22:52 52 °F /  11.1 °C 49.6 °F /  9.8 °C 29.2in /  988.1hPa SE 4.9mph /  7.9km/h 9mph /  14.5km/h 92% 0.01in /  0.2mm 0 W/m2
22:57 52 °F /  11.1 °C 49.6 °F /  9.8 °C 29.2in /  988.1hPa ENE 2.9mph /  4.7km/h 5mph /  8km/h 92% 0.02in /  0.5mm 0 W/m2
23:02 51.8 °F /  11 °C 49.6 °F /  9.8 °C 29.2in /  988.1hPa ENE 2.9mph /  4.7km/h 8mph /  12.9km/h 92% 0.02in /  0.5mm 0 W/m2
23:07 51.6 °F /  10.9 °C 49.6 °F /  9.8 °C 29.2in /  988.1hPa NE 2mph /  3.2km/h 8mph /  12.9km/h 93% 0.02in /  0.5mm 0 W/m2
23:12 51.4 °F /  10.8 °C 49.5 °F /  9.7 °C 29.2in /  987.8hPa NE 6mph /  9.7km/h 6mph /  9.7km/h 93% 0.02in /  0.5mm 0 W/m2
23:17 51.4 °F /  10.8 °C 49.5 °F /  9.7 °C 29.2in /  987.8hPa ENE 2mph /  3.2km/h 8mph /  12.9km/h 93% 0.03in /  0.8mm 0 W/m2
23:22 51.3 °F /  10.7 °C 49.3 °F /  9.6 °C 29.2in /  987.5hPa NE 4mph /  6.4km/h 6mph /  9.7km/h 93% 0.03in /  0.8mm 0 W/m2
23:27 51.3 °F /  10.7 °C 49.3 °F /  9.6 °C 29.2in /  987.5hPa SE 2.9mph /  4.7km/h 10mph /  16.1km/h 93% 0.03in /  0.8mm 0 W/m2
23:32 51.1 °F /  10.6 °C 49.1 °F /  9.5 °C 29.2in /  987.5hPa NE 4.9mph /  7.9km/h 7mph /  11.3km/h 93% 0.04in /  1.0mm 0 W/m2
23:37 50.9 °F /  10.5 °C 48.9 °F /  9.4 °C 29.2in /  987.5hPa NNE 2mph /  3.2km/h 10mph /  16.1km/h 93% 0.04in /  1.0mm 0 W/m2
23:42 50.7 °F /  10.4 °C 48.7 °F /  9.3 °C 29.2in /  987.5hPa NE 4mph /  6.4km/h 7mph /  11.3km/h 93% 0.05in /  1.3mm 0 W/m2
23:47 50.7 °F /  10.4 °C 48.7 °F /  9.3 °C 29.2in /  987.5hPa ESE 2.9mph /  4.7km/h 11mph /  17.7km/h 93% 0.06in /  1.5mm 0 W/m2
23:52 50.7 °F /  10.4 °C 48.7 °F /  9.3 °C 29.2in /  987.1hPa ESE 2mph /  3.2km/h 11mph /  17.7km/h 93% 0.05in /  1.3mm 0 W/m2
23:57 50.5 °F /  10.3 °C 48.6 °F /  9.2 °C 29.2in /  987.1hPa ESE 8.1mph /  13km/h 13mph /  20.9km/h 93% 0.05in /  1.3mm 0 W/m2
Juneau County Weather
Compliments of Weather Underground - 2 mb